createdAt,value
2019-04-07T00:01:24.076Z,17.97
2019-04-07T00:03:53.545Z,19.10
2019-04-07T00:06:23.693Z,21.07
2019-04-07T00:08:53.637Z,23.47
2019-04-07T00:11:23.044Z,14.30
2019-04-07T00:13:52.510Z,15.80
2019-04-07T00:16:21.868Z,18.33
2019-04-07T00:18:51.860Z,20.97
2019-04-07T00:21:21.204Z,18.53
2019-04-07T00:23:50.753Z,15.37
2019-04-07T00:26:20.341Z,17.13
2019-04-07T00:28:49.856Z,19.20
2019-04-07T00:31:19.413Z,18.97
2019-04-07T00:33:48.766Z,14.23
2019-04-07T00:36:18.717Z,12.63
2019-04-07T00:38:48.271Z,16.90
2019-04-07T00:41:19.111Z,16.37
2019-04-07T00:43:49.645Z,19.07
2019-04-07T00:46:19.135Z,18.10
2019-04-07T00:48:48.611Z,14.83
2019-04-07T00:51:17.973Z,14.27
2019-04-07T00:53:47.372Z,15.27
2019-04-07T00:56:18.296Z,15.35
2019-04-07T00:58:47.683Z,19.50
2019-04-07T01:01:18.651Z,21.73
2019-04-07T01:03:49.087Z,17.10
2019-04-07T01:06:18.759Z,14.60
2019-04-07T01:08:49.052Z,17.50
2019-04-07T01:11:18.942Z,16.97
2019-04-07T01:13:48.505Z,16.37
2019-04-07T01:16:17.878Z,18.90
2019-04-07T01:18:48.041Z,19.80
2019-04-07T01:21:17.729Z,16.93
2019-04-07T01:23:49.057Z,22.10
2019-04-07T01:26:18.797Z,17.67
2019-04-07T01:28:48.256Z,18.10
2019-04-07T01:31:17.722Z,18.37
2019-04-07T01:33:47.721Z,14.00
2019-04-07T01:36:18.277Z,16.43
2019-04-07T01:38:47.754Z,14.53
2019-04-07T01:41:24.516Z,14.77
2019-04-07T01:43:58.229Z,16.50
2019-04-07T01:46:41.547Z,13.90
2019-04-07T01:49:12.918Z,19.70
2019-04-07T01:51:44.483Z,14.68
2019-04-07T02:15:33.034Z,17.87
2019-04-07T02:18:16.369Z,14.00
2019-04-07T02:20:59.075Z,19.43
2019-04-07T02:23:47.201Z,19.97
2019-04-07T02:26:26.867Z,19.00
2019-04-07T02:29:03.940Z,16.47
2019-04-07T02:31:52.199Z,13.30
2019-04-07T02:34:29.880Z,18.63
2019-04-07T02:37:13.907Z,14.43
2019-04-07T02:39:54.919Z,19.17
2019-04-07T02:42:30.315Z,15.50
2019-04-07T02:45:01.611Z,16.43
2019-04-07T02:47:32.586Z,16.20
2019-04-07T02:50:19.195Z,17.00
2019-04-07T02:53:06.241Z,17.77
2019-04-07T02:55:49.003Z,19.10
2019-04-07T02:58:48.390Z,17.60
2019-04-07T03:01:20.134Z,15.10
2019-04-07T03:04:07.717Z,21.10
2019-04-07T03:06:47.093Z,13.87
2019-04-07T03:09:23.546Z,23.37
2019-04-07T03:12:05.045Z,18.80
2019-04-07T03:14:39.243Z,16.50
2019-04-07T03:17:18.254Z,18.57
2019-04-07T03:19:52.210Z,15.43
2019-04-07T03:22:23.737Z,20.23
2019-04-07T03:25:04.059Z,14.53
2019-04-07T03:27:51.414Z,16.67
2019-04-07T03:30:37.529Z,15.40
2019-04-07T03:33:27.585Z,19.70
2019-04-07T03:36:12.899Z,13.37
2019-04-07T03:38:49.153Z,13.23
2019-04-07T03:41:27.786Z,17.53
2019-04-07T03:44:09.342Z,15.67
2019-04-07T03:46:49.808Z,13.33
2019-04-07T03:49:23.639Z,12.87
2019-04-07T03:52:13.581Z,19.00
2019-04-07T03:54:45.136Z,21.07
2019-04-07T03:57:25.528Z,18.47
2019-04-07T03:59:57.685Z,17.83
2019-04-07T04:02:33.303Z,12.90
2019-04-07T04:05:22.660Z,15.93
2019-04-07T04:07:56.784Z,14.87
2019-04-07T04:10:34.414Z,18.47
2019-04-07T04:13:09.251Z,17.07
2019-04-07T04:15:55.369Z,19.20
2019-04-07T04:18:26.488Z,16.33
2019-04-07T04:20:55.941Z,14.27
2019-04-07T04:23:26.867Z,14.43
2019-04-07T04:25:56.333Z,15.47
2019-04-07T04:28:25.648Z,16.57
2019-04-07T04:30:56.483Z,19.17
2019-04-07T04:33:26.110Z,11.03
2019-04-07T04:35:55.911Z,17.87
2019-04-07T04:38:26.173Z,14.20
2019-04-07T04:40:55.652Z,21.63
2019-04-07T04:43:25.491Z,17.93
2019-04-07T04:45:54.962Z,20.03
2019-04-07T04:48:24.329Z,13.93
2019-04-07T04:50:53.699Z,21.23
2019-04-07T04:53:24.121Z,14.80
2019-04-07T04:55:56.896Z,19.07
2019-04-07T04:58:27.087Z,19.87
2019-04-07T05:00:57.481Z,21.97
2019-04-07T05:03:27.302Z,15.13
2019-04-07T05:05:56.665Z,20.33
2019-04-07T05:08:26.815Z,14.33
2019-04-07T05:10:56.612Z,18.40
2019-04-07T05:13:26.065Z,20.50
2019-04-07T05:15:58.280Z,20.67
2019-04-07T05:18:27.769Z,20.50
2019-04-07T05:20:58.226Z,20.30
2019-04-07T05:23:27.659Z,26.20
2019-04-07T05:25:57.047Z,19.20
2019-04-07T05:28:26.636Z,23.47
2019-04-07T05:30:56.061Z,22.33
2019-04-07T05:33:26.682Z,20.17
2019-04-07T05:35:56.063Z,19.50
2019-04-07T05:38:25.618Z,20.37
2019-04-07T05:40:55.429Z,23.83
2019-04-07T05:43:25.209Z,19.07
2019-04-07T05:45:55.460Z,25.83
2019-04-07T05:48:24.956Z,31.00
2019-04-07T05:50:57.925Z,20.57
2019-04-07T05:53:25.425Z,21.83
2019-04-07T05:55:56.073Z,22.70
2019-04-07T05:58:25.596Z,21.53
2019-04-07T06:00:54.998Z,19.37
2019-04-07T06:03:25.389Z,36.17
2019-04-07T06:05:55.065Z,24.37
2019-04-07T06:08:33.787Z,25.27
2019-04-07T06:10:59.964Z,24.33
2019-04-07T06:13:27.928Z,28.77
2019-04-07T06:15:57.570Z,29.33
2019-04-07T06:18:31.949Z,19.90
2019-04-07T06:20:58.547Z,19.73
2019-04-07T06:23:29.859Z,17.67
2019-04-07T06:26:00.292Z,16.33
2019-04-07T06:28:29.729Z,17.23
2019-04-07T06:31:00.174Z,18.17
2019-04-07T06:33:31.964Z,18.47
2019-04-07T06:36:01.545Z,22.07
2019-04-07T06:38:34.588Z,24.00
2019-04-07T06:41:03.080Z,21.87
2019-04-07T06:43:35.197Z,22.83
2019-04-07T06:46:06.036Z,20.23
2019-04-07T06:48:40.175Z,21.97
2019-04-07T06:51:10.700Z,19.63
2019-04-07T06:53:46.784Z,20.80
2019-04-07T06:56:17.600Z,18.93
2019-04-07T06:59:04.700Z,20.57
2019-04-07T07:01:41.543Z,21.73
2019-04-07T07:04:32.240Z,21.10
2019-04-07T07:07:03.618Z,20.20
2019-04-07T07:09:41.832Z,21.60
2019-04-07T07:12:34.936Z,21.07
2019-04-07T07:15:03.647Z,25.50
2019-04-07T07:17:37.928Z,25.20
2019-04-07T07:20:21.773Z,27.87
2019-04-07T07:23:09.870Z,26.90
2019-04-07T07:25:39.867Z,27.70
2019-04-07T07:28:11.548Z,27.50
2019-04-07T07:30:40.519Z,25.60
2019-04-07T07:33:11.105Z,29.13
2019-04-07T07:35:40.985Z,29.47
2019-04-07T07:38:10.411Z,28.60
2019-04-07T07:40:40.625Z,27.17
2019-04-07T07:43:10.540Z,25.33
2019-04-07T07:45:43.619Z,25.20
2019-04-07T07:48:11.038Z,31.80
2019-04-07T07:50:40.772Z,26.70
2019-04-07T07:53:10.504Z,27.63
2019-04-07T07:55:41.330Z,23.23
2019-04-07T07:58:10.716Z,22.97
2019-04-07T08:00:42.337Z,21.40
2019-04-07T08:03:12.057Z,21.70
2019-04-07T08:05:41.466Z,20.77
2019-04-07T08:08:11.513Z,23.43
2019-04-07T08:10:40.912Z,21.17
2019-04-07T08:13:10.334Z,20.07
2019-04-07T08:15:40.467Z,18.10
2019-04-07T08:18:11.371Z,20.47
2019-04-07T08:20:44.196Z,23.70
2019-04-07T08:23:13.316Z,18.93
2019-04-07T08:25:43.748Z,17.17
2019-04-07T08:28:13.626Z,16.27
2019-04-07T08:30:47.157Z,15.17
2019-04-07T08:33:15.725Z,12.90
2019-04-07T08:35:48.165Z,13.40
2019-04-07T08:38:19.974Z,12.30
2019-04-07T08:40:49.695Z,10.23
2019-04-07T08:43:21.209Z,9.07
2019-04-07T08:45:50.370Z,8.27
2019-04-07T08:48:20.861Z,8.57
2019-04-07T08:50:51.755Z,9.40
2019-04-07T08:53:21.326Z,7.00
2019-04-07T08:55:54.379Z,6.40
2019-04-07T08:58:25.698Z,6.70
2019-04-07T09:00:54.784Z,6.37
2019-04-07T09:03:24.208Z,6.87
2019-04-07T09:05:56.567Z,7.43
2019-04-07T09:08:24.682Z,7.00
2019-04-07T09:11:04.738Z,9.13
2019-04-07T09:13:36.319Z,8.90
2019-04-07T09:16:23.673Z,6.97
2019-04-07T09:19:10.993Z,7.77
2019-04-07T09:21:58.966Z,6.67
2019-04-07T09:24:33.526Z,8.80
2019-04-07T09:27:04.682Z,7.20
2019-04-07T09:29:52.476Z,7.97
2019-04-07T09:32:30.066Z,7.67
2019-04-07T09:35:01.982Z,8.37
2019-04-07T09:37:36.703Z,8.30
2019-04-07T09:40:09.468Z,7.40
2019-04-07T09:42:46.221Z,8.03
2019-04-07T09:45:38.516Z,9.38
2019-04-07T09:48:24.015Z,7.13
2019-04-07T09:50:58.308Z,7.17
2019-04-07T09:53:34.920Z,8.67
2019-04-07T09:56:26.438Z,7.83
2019-04-07T09:59:18.165Z,6.60
2019-04-07T10:01:49.216Z,7.40
2019-04-07T10:04:26.309Z,6.20
2019-04-07T10:07:11.052Z,6.97
2019-04-07T10:10:04.748Z,6.93
2019-04-07T10:12:29.128Z,8.00
2019-04-07T10:15:15.443Z,8.40
2019-04-07T10:17:58.756Z,8.07
2019-04-07T10:20:38.609Z,10.70
2019-04-07T10:23:22.057Z,10.57
2019-04-07T10:25:53.157Z,8.97
2019-04-07T10:28:24.484Z,8.27
2019-04-07T10:31:18.453Z,9.43
2019-04-07T10:34:03.610Z,17.27
2019-04-07T10:36:47.516Z,8.10
2019-04-07T10:39:25.034Z,8.17
2019-04-07T10:42:11.358Z,8.60
2019-04-07T10:45:05.828Z,11.73
2019-04-07T10:47:49.435Z,8.60
2019-04-07T10:50:33.673Z,8.07
2019-04-07T10:53:20.570Z,8.73
2019-04-07T10:55:57.508Z,7.57
2019-04-07T10:58:37.905Z,10.50
2019-04-07T11:01:25.622Z,7.83
2019-04-07T11:04:02.531Z,7.63
2019-04-07T11:06:46.166Z,8.13
2019-04-07T11:09:21.116Z,8.77
2019-04-07T11:11:58.889Z,7.03
2019-04-07T11:14:33.092Z,8.30
2019-04-07T11:17:08.086Z,7.50
2019-04-07T11:19:43.491Z,8.07
2019-04-07T11:22:14.654Z,7.43
2019-04-07T11:24:45.921Z,7.47
2019-04-07T11:27:20.106Z,7.30
2019-04-07T11:29:51.710Z,9.00
2019-04-07T11:32:30.494Z,8.73
2019-04-07T11:35:01.607Z,7.30
2019-04-07T11:37:32.860Z,7.20
2019-04-07T11:40:19.219Z,8.50
2019-04-07T11:42:53.465Z,7.83
2019-04-07T11:45:36.378Z,7.57
2019-04-07T11:48:12.926Z,7.57
2019-04-07T11:50:43.950Z,7.70
2019-04-07T11:53:29.988Z,8.53
2019-04-07T11:56:05.956Z,7.80
2019-04-07T11:58:48.742Z,8.00
2019-04-07T12:01:22.996Z,7.77
2019-04-07T12:04:00.177Z,8.63
2019-04-07T12:06:37.518Z,8.30
2019-04-07T12:09:19.725Z,8.40
2019-04-07T12:11:51.514Z,9.57
2019-04-07T12:14:28.849Z,8.73
2019-04-07T12:17:05.012Z,9.37
2019-04-07T12:19:43.048Z,9.90
2019-04-07T12:22:17.189Z,8.60
2019-04-07T12:25:01.882Z,8.63
2019-04-07T12:27:51.598Z,9.17
2019-04-07T12:30:28.466Z,8.17
2019-04-07T12:33:07.843Z,9.57
2019-04-07T12:35:47.819Z,10.03
2019-04-07T12:38:24.256Z,9.90
2019-04-07T12:41:12.482Z,8.97
2019-04-07T12:43:37.560Z,9.40
2019-04-07T12:46:09.004Z,10.67
2019-04-07T12:48:50.071Z,8.93
2019-04-07T12:51:30.777Z,10.87
2019-04-07T12:54:07.123Z,9.47
2019-04-07T12:56:43.425Z,10.67
2019-04-07T12:59:21.072Z,9.50
2019-04-07T13:02:06.623Z,9.23
2019-04-07T13:04:40.722Z,10.63
2019-04-07T13:07:28.471Z,9.73
2019-04-07T13:10:08.868Z,10.83
2019-04-07T13:12:39.880Z,12.53
2019-04-07T13:15:29.934Z,9.90
2019-04-07T13:18:10.588Z,12.93
2019-04-07T13:20:59.035Z,9.43
2019-04-07T13:23:49.228Z,9.80
2019-04-07T13:26:29.525Z,9.90
2019-04-07T13:28:56.413Z,10.27
2019-04-07T13:31:33.346Z,10.83
2019-04-07T13:34:10.656Z,11.03
2019-04-07T13:36:56.986Z,9.73
2019-04-07T13:39:44.948Z,12.37
2019-04-07T13:42:18.283Z,10.00
2019-04-07T13:44:49.638Z,10.27
2019-04-07T13:47:27.527Z,11.80
2019-04-07T13:50:05.291Z,11.23
2019-04-07T13:52:55.005Z,9.90
2019-04-07T13:55:24.423Z,10.08
2019-04-07T13:58:00.444Z,10.23
2019-04-07T14:00:33.896Z,10.53
2019-04-07T14:03:08.695Z,9.57
2019-04-07T14:05:43.046Z,11.83
2019-04-07T14:08:17.060Z,9.50
2019-04-07T14:10:54.051Z,9.00
2019-04-07T14:13:31.189Z,11.13
2019-04-07T14:16:14.353Z,10.23
2019-04-07T14:18:52.477Z,9.97
2019-04-07T14:21:30.717Z,10.00
2019-04-07T14:24:04.760Z,12.70
2019-04-07T14:26:36.554Z,11.30
2019-04-07T14:29:10.126Z,10.37
2019-04-07T14:31:46.883Z,10.57
2019-04-07T14:34:21.763Z,10.83
2019-04-07T14:36:53.615Z,10.90
2019-04-07T14:39:24.880Z,11.63
2019-04-07T14:42:04.557Z,12.37
2019-04-07T14:44:34.780Z,12.23
2019-04-07T14:47:14.977Z,12.93
2019-04-07T14:50:02.019Z,12.43
2019-04-07T14:52:33.589Z,12.47
2019-04-07T14:55:20.677Z,13.80
2019-04-07T14:58:13.465Z,12.40
2019-04-07T15:00:54.764Z,13.53
2019-04-07T15:03:24.500Z,15.83
2019-04-07T15:05:57.189Z,12.93
2019-04-07T15:08:30.337Z,19.53
2019-04-07T15:11:13.999Z,14.97
2019-04-07T15:13:41.834Z,16.87
2019-04-07T15:16:11.977Z,12.43
2019-04-07T15:18:42.160Z,12.63
2019-04-07T15:21:11.654Z,13.13
2019-04-07T15:23:43.823Z,13.20
2019-04-07T15:26:15.702Z,11.70
2019-04-07T15:28:45.677Z,11.50
2019-04-07T15:31:17.447Z,11.93
2019-04-07T15:33:46.701Z,14.70
2019-04-07T15:36:19.392Z,12.23
2019-04-07T15:38:49.650Z,12.13
2019-04-07T15:41:19.550Z,13.17
2019-04-07T15:43:50.997Z,13.33
2019-04-07T15:46:20.379Z,13.07
2019-04-07T15:48:49.883Z,13.67
2019-04-07T15:51:19.864Z,12.97
2019-04-07T15:53:51.604Z,14.60
2019-04-07T15:56:20.898Z,13.60
2019-04-07T15:58:51.512Z,13.70
2019-04-07T16:01:21.720Z,13.90
2019-04-07T16:03:53.729Z,13.37
2019-04-07T16:06:23.195Z,13.37
2019-04-07T16:08:53.222Z,13.33
2019-04-07T16:11:25.649Z,13.17
2019-04-07T16:13:55.147Z,15.03
2019-04-07T16:16:27.482Z,14.53
2019-04-07T16:18:55.826Z,13.87
2019-04-07T16:21:27.735Z,14.57
2019-04-07T16:23:57.258Z,14.93
2019-04-07T16:26:30.181Z,15.63
2019-04-07T16:28:57.749Z,15.60
2019-04-07T16:31:27.194Z,14.70
2019-04-07T16:33:56.579Z,15.07
2019-04-07T16:36:26.681Z,15.53
2019-04-07T16:38:56.486Z,16.23
2019-04-07T16:41:27.289Z,18.30
2019-04-07T16:43:56.810Z,16.40
2019-04-07T16:46:26.486Z,17.57
2019-04-07T16:48:58.470Z,16.33
2019-04-07T16:51:30.672Z,19.53
2019-04-07T16:54:00.292Z,18.77
2019-04-07T16:56:29.736Z,17.30
2019-04-07T16:59:01.297Z,17.27
2019-04-07T17:01:31.766Z,16.97
2019-04-07T17:04:03.042Z,19.50
2019-04-07T17:06:36.004Z,19.27
2019-04-07T17:09:11.030Z,16.70
2019-04-07T17:11:40.902Z,28.23
2019-04-07T17:14:10.627Z,19.87
2019-04-07T17:16:45.366Z,17.37
2019-04-07T17:19:13.900Z,16.67
2019-04-07T17:21:43.326Z,16.83
2019-04-07T17:24:13.124Z,17.23
2019-04-07T17:26:44.026Z,53.87
2019-04-07T17:29:17.104Z,17.07
2019-04-07T17:31:46.693Z,16.67
2019-04-07T17:34:16.262Z,16.90
2019-04-07T17:36:48.414Z,17.37
2019-04-07T17:39:24.714Z,27.67
2019-04-07T17:41:56.095Z,18.83
2019-04-07T17:44:36.962Z,17.53
2019-04-07T17:47:08.395Z,16.67
2019-04-07T17:49:56.035Z,21.27
2019-04-07T17:52:40.851Z,21.70
2019-04-07T17:55:15.563Z,16.87
2019-04-07T17:57:47.208Z,20.53
2019-04-07T18:00:18.694Z,17.97
2019-04-07T18:02:54.928Z,16.37
2019-04-07T18:05:35.305Z,14.80
2019-04-07T18:08:21.953Z,20.17
2019-04-07T18:10:54.094Z,16.23
2019-04-07T18:13:44.947Z,19.77
2019-04-07T18:16:13.837Z,20.10
2019-04-07T18:18:54.158Z,14.50
2019-04-07T18:21:23.892Z,15.60
2019-04-07T18:24:13.695Z,14.87
2019-04-07T18:26:46.315Z,15.27
2019-04-07T18:29:32.512Z,15.83
2019-04-07T18:32:03.929Z,15.47
2019-04-07T18:34:46.954Z,15.97
2019-04-07T18:37:26.139Z,17.40
2019-04-07T18:40:13.202Z,14.80
2019-04-07T18:43:01.023Z,16.30
2019-04-07T18:45:38.433Z,20.17
2019-04-07T18:48:10.080Z,18.20
2019-04-07T18:50:41.292Z,15.57
2019-04-07T18:53:32.302Z,15.37
2019-04-07T18:56:03.504Z,15.90
2019-04-07T18:58:37.275Z,18.10
2019-04-07T19:01:26.535Z,17.53
2019-04-07T19:03:58.140Z,16.90
2019-04-07T19:06:50.036Z,19.50
2019-04-07T19:09:36.411Z,15.93
2019-04-07T19:12:15.742Z,16.02
2019-04-07T19:14:52.231Z,21.70
2019-04-07T19:17:21.710Z,17.60
2019-04-07T19:19:52.585Z,16.17
2019-04-07T19:22:41.424Z,15.73
2019-04-07T19:25:27.502Z,15.70
2019-04-07T19:28:17.765Z,17.00
2019-04-07T19:30:52.516Z,16.70
2019-04-07T19:33:40.517Z,17.70
2019-04-07T19:36:17.722Z,15.00
2019-04-07T19:38:49.269Z,16.33
2019-04-07T19:41:35.151Z,17.30
2019-04-07T19:44:33.715Z,17.13
2019-04-07T19:47:00.047Z,14.80
2019-04-07T19:49:30.681Z,16.40
2019-04-07T19:52:17.621Z,17.73
2019-04-07T19:54:51.760Z,15.17
2019-04-07T19:57:28.644Z,16.73
2019-04-07T20:00:05.852Z,17.57
2019-04-07T20:02:40.507Z,18.70
2019-04-07T20:05:23.353Z,18.03
2019-04-07T20:08:03.598Z,17.83
2019-04-07T20:10:35.816Z,19.73
2019-04-07T20:13:26.087Z,16.20
2019-04-07T20:16:03.323Z,19.33
2019-04-07T20:18:35.363Z,16.77
2019-04-07T20:21:08.273Z,16.67
2019-04-07T20:23:39.441Z,15.27
2019-04-07T20:26:10.417Z,15.93
2019-04-07T20:28:43.472Z,16.73
2019-04-07T20:31:19.473Z,15.43
2019-04-07T20:34:06.197Z,19.00
2019-04-07T20:36:38.079Z,15.57
2019-04-07T20:39:22.452Z,17.13
2019-04-07T20:41:56.805Z,17.83
2019-04-07T20:44:39.770Z,15.60
2019-04-07T20:47:28.283Z,15.50
2019-04-07T20:50:05.535Z,19.90
2019-04-07T20:53:07.861Z,16.27
2019-04-07T20:55:27.661Z,17.27
2019-04-07T20:58:12.295Z,18.37
2019-04-07T21:00:57.683Z,18.40
2019-04-07T21:03:23.846Z,18.03
2019-04-07T21:06:09.279Z,19.63
2019-04-07T21:08:49.522Z,18.07
2019-04-07T21:11:21.568Z,17.53
2019-04-07T21:13:59.484Z,17.50
2019-04-07T21:16:43.250Z,13.63
2019-04-07T21:19:20.846Z,19.50
2019-04-07T21:22:07.367Z,16.73
2019-04-07T21:24:49.782Z,17.30
2019-04-07T21:27:20.603Z,16.73
2019-04-07T21:30:06.754Z,20.57
2019-04-07T21:32:40.878Z,16.67
2019-04-07T21:35:21.331Z,19.07
2019-04-07T21:37:53.019Z,19.67
2019-04-07T21:40:30.058Z,29.53
2019-04-07T21:43:04.661Z,19.83
2019-04-07T21:45:54.370Z,18.33
2019-04-07T21:48:33.885Z,19.57
2019-04-07T21:51:10.729Z,16.60
2019-04-07T21:53:43.197Z,16.37
2019-04-07T21:56:32.832Z,16.67
2019-04-07T21:59:09.645Z,20.73
2019-04-07T22:01:43.311Z,17.33
2019-04-07T22:04:15.943Z,16.40
2019-04-07T22:06:49.694Z,19.57
2019-04-07T22:09:20.760Z,20.07
2019-04-07T22:11:50.119Z,23.50
2019-04-07T22:14:20.873Z,18.30
2019-04-07T22:16:51.269Z,22.07
2019-04-07T22:19:20.685Z,14.60
2019-04-07T22:21:53.287Z,18.77
2019-04-07T22:24:21.895Z,17.00
2019-04-07T22:26:51.588Z,19.10
2019-04-07T22:29:21.084Z,17.40
2019-04-07T22:31:55.585Z,16.23
2019-04-07T22:34:25.073Z,18.23
2019-04-07T22:36:54.457Z,21.73
2019-04-07T22:39:27.470Z,19.40
2019-04-07T22:41:56.974Z,14.07
2019-04-07T22:44:26.956Z,17.53
2019-04-07T22:46:56.529Z,18.43
2019-04-07T22:49:31.461Z,19.27
2019-04-07T22:51:57.658Z,17.50
2019-04-07T22:54:29.514Z,19.53
2019-04-07T22:56:58.231Z,18.70
2019-04-07T22:59:28.080Z,16.47
2019-04-07T23:01:57.737Z,18.00
2019-04-07T23:04:27.957Z,19.70
2019-04-07T23:06:57.422Z,15.60
2019-04-07T23:09:27.200Z,19.70
2019-04-07T23:11:56.669Z,17.17
2019-04-07T23:14:26.061Z,16.20
2019-04-07T23:16:56.250Z,16.83
2019-04-07T23:19:25.740Z,17.30
2019-04-07T23:21:57.521Z,17.90
2019-04-07T23:24:26.931Z,19.90
2019-04-07T23:26:56.523Z,25.00
2019-04-07T23:29:26.307Z,18.33
2019-04-07T23:31:55.706Z,19.67
2019-04-07T23:34:25.454Z,22.27
2019-04-07T23:36:54.950Z,16.27
2019-04-07T23:39:25.079Z,17.27
2019-04-07T23:41:54.583Z,20.90
2019-04-07T23:44:24.039Z,18.20
2019-04-07T23:46:55.132Z,23.30
2019-04-07T23:49:24.506Z,19.70
2019-04-07T23:51:53.979Z,17.13
2019-04-07T23:54:23.370Z,19.03
2019-04-07T23:56:52.731Z,20.43
2019-04-07T23:59:24.924Z,19.73
